Time;durP1;ratioP1;P1;durP2;ratioP2;P2;SDS_P1;SDS_P2;PMS_P1;PMS_P2;Temp;Humidity;BMP_temperature;BMP_pressure;BME280_temperature;BME280_humidity;BME280_pressure;Samples;Min_cycle;Max_cycle;Signal;HPM_P1;HPM_P2
2023/05/29 00:01:23;;;;;;;57.37;2.90;;;;;;;;;;5070726;28;20883;-70
2023/05/29 00:03:51;;;;;;;58.47;3.10;;;;;;;;;;5070926;28;20455;-70
2023/05/29 00:06:18;;;;;;;57.67;2.73;;;;;;;;;;5070935;28;20491;-70
2023/05/29 00:08:46;;;;;;;58.10;2.70;;;;;;;;;;5070048;28;20460;-69
2023/05/29 00:11:14;;;;;;;57.87;2.77;;;;;;;;;;5070676;28;20506;-70
2023/05/29 00:13:41;;;;;;;57.77;2.90;;;;;;;;;;5070766;28;20539;-70
2023/05/29 00:16:09;;;;;;;59.80;3.00;;;;;;;;;;5070488;28;20947;-70
2023/05/29 00:18:36;;;;;;;59.33;4.37;;;;;;;;;;5069964;28;20447;-69
2023/05/29 00:21:03;;;;;;;58.03;3.13;;;;;;;;;;5070391;28;20951;-70
2023/05/29 00:23:30;;;;;;;57.73;2.93;;;;;;;;;;5070451;28;20467;-70
2023/05/29 00:25:59;;;;;;;58.20;3.47;;;;;;;;;;5070324;28;20483;-70
2023/05/29 00:28:26;;;;;;;57.43;2.80;;;;;;;;;;5074088;28;20447;-69
2023/05/29 00:30:53;;;;;;;57.50;2.60;;;;;;;;;;5073832;28;20455;-70
2023/05/29 00:33:20;;;;;;;59.37;3.83;;;;;;;;;;5073974;28;20462;-70
2023/05/29 00:35:47;;;;;;;59.00;4.37;;;;;;;;;;5074001;28;20440;-69
2023/05/29 00:38:15;;;;;;;57.53;2.57;;;;;;;;;;5074039;28;20524;-70
2023/05/29 00:40:42;;;;;;;60.30;4.57;;;;;;;;;;5073532;28;20448;-70
2023/05/29 00:43:10;;;;;;;57.90;3.57;;;;;;;;;;5073646;28;21003;-70
2023/05/29 00:45:37;;;;;;;58.00;3.10;;;;;;;;;;5073940;28;20502;-70
2023/05/29 00:48:04;;;;;;;57.60;2.70;;;;;;;;;;5073753;28;20443;-70
2023/05/29 00:50:32;;;;;;;58.27;3.17;;;;;;;;;;5072690;28;20941;-70
2023/05/29 00:53:00;;;;;;;57.50;2.60;;;;;;;;;;5073563;28;20468;-70
2023/05/29 00:55:27;;;;;;;60.47;3.23;;;;;;;;;;5073318;28;20444;-70
2023/05/29 00:57:54;;;;;;;59.00;2.90;;;;;;;;;;5073774;28;20824;-70
2023/05/29 01:00:23;;;;;;;59.80;4.20;;;;;;;;;;5072946;28;20454;-69
2023/05/29 01:02:52;;;;;;;57.57;2.80;;;;;;;;;;5073614;28;20468;-70
2023/05/29 01:05:20;;;;;;;57.67;2.60;;;;;;;;;;5073492;28;20506;-70
2023/05/29 01:07:47;;;;;;;57.70;2.70;;;;;;;;;;5073578;28;20521;-70
2023/05/29 01:10:16;;;;;;;57.37;2.27;;;;;;;;;;5072269;28;20502;-69
2023/05/29 01:12:45;;;;;;;57.60;2.40;;;;;;;;;;5073398;28;20960;-70
2023/05/29 01:15:18;;;;;;;58.97;3.20;;;;;;;;;;5073174;28;20451;-70
2023/05/29 01:17:52;;;;;;;58.10;2.80;;;;;;;;;;5073206;28;20448;-70
2023/05/29 01:20:24;;;;;;;59.13;2.90;;;;;;;;;;5072260;28;20512;-70
2023/05/29 01:23:11;;;;;;;58.20;3.40;;;;;;;;;;5072911;28;20520;-70
2023/05/29 01:25:49;;;;;;;57.70;2.90;;;;;;;;;;5073177;28;20467;-70
2023/05/29 01:28:18;;;;;;;64.10;4.50;;;;;;;;;;5072909;28;20943;-70
2023/05/29 01:30:45;;;;;;;57.47;2.70;;;;;;;;;;5072109;28;20443;-70
2023/05/29 01:33:13;;;;;;;57.60;2.80;;;;;;;;;;5069413;28;20467;-70
2023/05/29 01:35:40;;;;;;;57.63;2.70;;;;;;;;;;5072707;28;20447;-70
2023/05/29 01:38:07;;;;;;;58.27;3.03;;;;;;;;;;5071449;28;20508;-70
2023/05/29 01:40:34;;;;;;;57.70;3.03;;;;;;;;;;5071888;28;20458;-70
2023/05/29 01:43:02;;;;;;;57.43;2.43;;;;;;;;;;5072719;28;20475;-70
2023/05/29 01:45:30;;;;;;;57.80;2.90;;;;;;;;;;5072449;28;20506;-70
2023/05/29 01:47:57;;;;;;;57.53;2.70;;;;;;;;;;5072699;28;20470;-70
2023/05/29 01:50:25;;;;;;;57.47;2.60;;;;;;;;;;5072006;28;20451;-70
2023/05/29 01:52:52;;;;;;;57.57;2.70;;;;;;;;;;5072181;28;20479;-70
2023/05/29 01:55:19;;;;;;;57.90;3.13;;;;;;;;;;5072329;28;20448;-70
2023/05/29 01:57:46;;;;;;;57.50;2.83;;;;;;;;;;5072633;28;20462;-70
2023/05/29 02:00:14;;;;;;;57.47;2.60;;;;;;;;;;5071760;28;20450;-70
2023/05/29 02:02:43;;;;;;;57.67;2.80;;;;;;;;;;5072435;28;20479;-70
2023/05/29 02:05:10;;;;;;;57.80;2.80;;;;;;;;;;5072198;28;20837;-70
2023/05/29 02:07:38;;;;;;;58.60;2.87;;;;;;;;;;5071874;28;20497;-70
2023/05/29 02:10:05;;;;;;;58.70;3.53;;;;;;;;;;5071518;28;20448;-70
2023/05/29 02:12:32;;;;;;;57.67;2.60;;;;;;;;;;5071940;28;21013;-70
2023/05/29 02:14:59;;;;;;;57.70;2.80;;;;;;;;;;5072332;28;20452;-70
2023/05/29 02:17:26;;;;;;;57.57;2.70;;;;;;;;;;5072246;28;20875;-70
2023/05/29 02:19:55;;;;;;;57.90;3.00;;;;;;;;;;5071071;28;20450;-70
2023/05/29 02:22:22;;;;;;;57.67;2.80;;;;;;;;;;5072016;28;20471;-70
2023/05/29 02:24:49;;;;;;;58.07;3.00;;;;;;;;;;5071757;28;20465;-69
2023/05/29 02:27:16;;;;;;;60.30;2.90;;;;;;;;;;5071729;28;20796;-70
2023/05/29 02:29:43;;;;;;;57.50;2.63;;;;;;;;;;5071159;28;20458;-70
2023/05/29 02:32:10;;;;;;;57.60;2.60;;;;;;;;;;5071607;28;20485;-70
2023/05/29 02:34:37;;;;;;;58.70;4.13;;;;;;;;;;5071769;28;20458;-70
2023/05/29 02:37:06;;;;;;;58.60;3.93;;;;;;;;;;5071784;28;20892;-70
2023/05/29 02:39:33;;;;;;;58.10;3.43;;;;;;;;;;5071051;28;20447;-70
2023/05/29 02:42:00;;;;;;;57.47;2.57;;;;;;;;;;5071733;28;20471;-70
2023/05/29 02:44:27;;;;;;;59.50;3.07;;;;;;;;;;5071558;28;20448;-70
2023/05/29 02:46:54;;;;;;;57.70;2.70;;;;;;;;;;5071338;28;20503;-70
2023/05/29 02:49:21;;;;;;;57.47;2.50;;;;;;;;;;5070521;28;20451;-70
2023/05/29 02:51:48;;;;;;;57.67;2.73;;;;;;;;;;5071490;28;20471;-69
2023/05/29 02:54:17;;;;;;;57.33;2.50;;;;;;;;;;5071344;28;20443;-70
2023/05/29 02:56:44;;;;;;;57.90;3.07;;;;;;;;;;5071421;28;20440;-70
2023/05/29 02:59:11;;;;;;;57.73;2.70;;;;;;;;;;5070512;28;20970;-70
2023/05/29 03:01:38;;;;;;;57.50;2.60;;;;;;;;;;5071319;28;20474;-70
2023/05/29 03:04:06;;;;;;;58.37;2.80;;;;;;;;;;5071429;28;20447;-70
2023/05/29 03:06:33;;;;;;;57.43;2.30;;;;;;;;;;5071094;28;20555;-70
2023/05/29 03:09:00;;;;;;;58.00;2.80;;;;;;;;;;5070431;28;20456;-69
2023/05/29 03:11:30;;;;;;;58.70;2.80;;;;;;;;;;5071415;28;20467;-70
2023/05/29 03:13:57;;;;;;;57.43;2.47;;;;;;;;;;5071536;28;20451;-69
2023/05/29 03:16:25;;;;;;;57.67;2.70;;;;;;;;;;5070980;28;20447;-69
2023/05/29 03:18:52;;;;;;;57.33;2.47;;;;;;;;;;5070358;28;20456;-69
2023/05/29 03:21:19;;;;;;;58.30;3.50;;;;;;;;;;5070930;28;20486;-70
2023/05/29 03:23:46;;;;;;;57.57;2.60;;;;;;;;;;5071132;28;20910;-70
2023/05/29 03:26:13;;;;;;;59.80;3.47;;;;;;;;;;5071227;28;20482;-69
2023/05/29 03:28:42;;;;;;;58.20;3.37;;;;;;;;;;5070049;28;20970;-69
2023/05/29 03:31:09;;;;;;;57.60;2.70;;;;;;;;;;5071297;28;20472;-70
2023/05/29 03:33:37;;;;;;;57.67;2.57;;;;;;;;;;5070923;28;20956;-70
2023/05/29 03:36:04;;;;;;;57.57;2.70;;;;;;;;;;5071001;28;20462;-70
2023/05/29 03:38:32;;;;;;;57.37;2.60;;;;;;;;;;5070354;28;20451;-70
2023/05/29 03:40:59;;;;;;;58.00;2.90;;;;;;;;;;5071096;28;20821;-70
2023/05/29 03:43:26;;;;;;;57.83;3.00;;;;;;;;;;5070673;28;20985;-69
2023/05/29 03:45:54;;;;;;;57.47;2.80;;;;;;;;;;5071311;28;20443;-70
2023/05/29 03:48:21;;;;;;;57.70;2.93;;;;;;;;;;5070858;28;20912;-70
2023/05/29 03:50:49;;;;;;;57.67;2.57;;;;;;;;;;5070114;28;20452;-69
2023/05/29 03:53:16;;;;;;;57.60;2.67;;;;;;;;;;5070738;28;20451;-70
2023/05/29 03:55:43;;;;;;;57.60;2.40;;;;;;;;;;5070604;28;20571;-70
2023/05/29 03:58:12;;;;;;;57.77;3.03;;;;;;;;;;5070853;28;20538;-70
2023/05/29 04:00:39;;;;;;;57.87;3.67;;;;;;;;;;5070363;28;20482;-70
2023/05/29 04:03:07;;;;;;;57.67;2.80;;;;;;;;;;5074237;28;20475;-70
2023/05/29 04:05:35;;;;;;;58.00;2.93;;;;;;;;;;5074739;28;20508;-70
2023/05/29 04:08:04;;;;;;;57.47;2.40;;;;;;;;;;5074390;28;20922;-70
2023/05/29 04:10:33;;;;;;;57.27;2.30;;;;;;;;;;5073515;28;20455;-70
2023/05/29 04:13:00;;;;;;;57.60;2.53;;;;;;;;;;5074504;28;20529;-70
2023/05/29 04:15:28;;;;;;;57.80;3.10;;;;;;;;;;5074568;28;20454;-69
2023/05/29 04:17:55;;;;;;;58.07;3.10;;;;;;;;;;5074309;28;20458;-70
2023/05/29 04:20:23;;;;;;;57.63;2.43;;;;;;;;;;5073473;28;21001;-70
2023/05/29 04:22:51;;;;;;;57.47;2.37;;;;;;;;;;5073928;28;20943;-70
2023/05/29 04:25:18;;;;;;;57.57;2.73;;;;;;;;;;5074051;28;20469;-70
2023/05/29 04:27:48;;;;;;;58.33;3.10;;;;;;;;;;5074231;28;20509;-70
2023/05/29 04:30:15;;;;;;;57.17;2.67;;;;;;;;;;5073256;28;20444;-70
2023/05/29 04:32:43;;;;;;;57.27;2.53;;;;;;;;;;5074200;28;20471;-70
2023/05/29 04:35:10;;;;;;;57.27;2.40;;;;;;;;;;5074184;28;20451;-70
2023/05/29 04:37:39;;;;;;;57.23;2.40;;;;;;;;;;5073817;28;21015;-70
2023/05/29 04:40:08;;;;;;;57.80;2.63;;;;;;;;;;5073281;28;20530;-70
2023/05/29 04:42:36;;;;;;;57.30;2.80;;;;;;;;;;5073966;28;20481;-70
2023/05/29 04:45:03;;;;;;;57.27;2.60;;;;;;;;;;5074075;28;20443;-70
2023/05/29 04:47:32;;;;;;;57.30;2.40;;;;;;;;;;5073976;28;20588;-67
2023/05/29 04:49:59;;;;;;;57.37;2.50;;;;;;;;;;5072698;28;20443;-67
2023/05/29 04:52:26;;;;;;;58.87;4.13;;;;;;;;;;5073793;28;20495;-67
2023/05/29 04:54:55;;;;;;;57.57;2.50;;;;;;;;;;5073867;28;20448;-67
2023/05/29 04:57:22;;;;;;;58.73;3.60;;;;;;;;;;5073853;28;20924;-69
2023/05/29 04:59:49;;;;;;;57.53;2.87;;;;;;;;;;5072992;28;20443;-70
2023/05/29 05:02:16;;;;;;;58.33;2.83;;;;;;;;;;5073646;28;20475;-70
2023/05/29 05:04:45;;;;;;;59.50;3.00;;;;;;;;;;5073255;28;20451;-70
2023/05/29 05:07:12;;;;;;;57.83;3.37;;;;;;;;;;5073414;28;20586;-70
2023/05/29 05:09:39;;;;;;;57.37;2.70;;;;;;;;;;5072815;28;20479;-70
2023/05/29 05:12:08;;;;;;;57.97;3.90;;;;;;;;;;5073446;28;20463;-70
2023/05/29 05:14:36;;;;;;;57.27;2.70;;;;;;;;;;5073262;28;20457;-70
2023/05/29 05:17:03;;;;;;;57.37;2.80;;;;;;;;;;5072980;28;20451;-70
2023/05/29 05:19:30;;;;;;;57.30;2.40;;;;;;;;;;5072496;28;20443;-70
2023/05/29 05:21:57;;;;;;;57.17;2.80;;;;;;;;;;5072969;28;20471;-70
2023/05/29 05:24:24;;;;;;;57.17;2.60;;;;;;;;;;5073087;28;20481;-70
2023/05/29 05:26:51;;;;;;;57.30;2.60;;;;;;;;;;5073181;28;20502;-70
2023/05/29 05:29:20;;;;;;;57.40;2.70;;;;;;;;;;5072196;28;20450;-70
2023/05/29 05:31:47;;;;;;;58.10;2.60;;;;;;;;;;5073167;28;20463;-70
2023/05/29 05:34:15;;;;;;;57.43;2.70;;;;;;;;;;5073043;28;20458;-70
2023/05/29 05:36:42;;;;;;;57.17;2.50;;;;;;;;;;5072758;28;20462;-70
2023/05/29 05:39:09;;;;;;;57.27;2.27;;;;;;;;;;5072047;28;20447;-70
2023/05/29 05:41:36;;;;;;;57.23;2.37;;;;;;;;;;5072640;28;20481;-70
2023/05/29 05:44:03;;;;;;;58.17;2.80;;;;;;;;;;5072767;28;20451;-70
2023/05/29 05:46:31;;;;;;;57.17;2.37;;;;;;;;;;5072471;28;20451;-70
2023/05/29 05:49:00;;;;;;;59.60;3.23;;;;;;;;;;5072015;28;20448;-70
2023/05/29 05:51:28;;;;;;;57.67;2.90;;;;;;;;;;5072363;28;20467;-70
2023/05/29 05:53:55;;;;;;;57.03;2.27;;;;;;;;;;5072496;28;20451;-70
2023/05/29 05:56:22;;;;;;;57.27;2.80;;;;;;;;;;5072617;28;20448;-70
2023/05/29 05:58:50;;;;;;;56.97;2.50;;;;;;;;;;5071449;28;21010;-70
2023/05/29 06:01:18;;;;;;;57.30;2.67;;;;;;;;;;5072759;28;20510;-70
2023/05/29 06:03:46;;;;;;;58.30;4.70;;;;;;;;;;5072160;28;20505;-70
2023/05/29 06:06:14;;;;;;;57.20;2.27;;;;;;;;;;5072446;28;20458;-70
2023/05/29 06:08:41;;;;;;;57.57;2.87;;;;;;;;;;5071226;28;21063;-70
2023/05/29 06:11:08;;;;;;;63.83;3.20;;;;;;;;;;5071958;28;20566;-70
2023/05/29 06:13:35;;;;;;;57.17;2.60;;;;;;;;;;5071949;28;20447;-70
2023/05/29 06:16:02;;;;;;;57.30;2.30;;;;;;;;;;5072189;28;20459;-70
2023/05/29 06:18:29;;;;;;;56.97;2.77;;;;;;;;;;5071893;28;20450;-70
2023/05/29 06:20:58;;;;;;;58.07;3.63;;;;;;;;;;5071729;28;20825;-70
2023/05/29 06:23:25;;;;;;;57.50;3.10;;;;;;;;;;5071921;28;20455;-70
2023/05/29 06:25:52;;;;;;;58.17;2.80;;;;;;;;;;5071211;28;20432;-70
2023/05/29 06:28:19;;;;;;;57.47;2.80;;;;;;;;;;5071804;28;20531;-70
2023/05/29 06:30:46;;;;;;;57.60;2.97;;;;;;;;;;5071132;28;20446;-70
2023/05/29 06:33:13;;;;;;;57.37;2.60;;;;;;;;;;5071515;28;20991;-70
2023/05/29 06:35:41;;;;;;;57.80;3.47;;;;;;;;;;5071600;28;20939;-70
2023/05/29 06:38:09;;;;;;;58.47;3.23;;;;;;;;;;5071675;28;20447;-70
2023/05/29 06:40:36;;;;;;;57.20;2.30;;;;;;;;;;5071014;28;20538;-70
2023/05/29 06:43:03;;;;;;;57.30;2.50;;;;;;;;;;5071664;28;20460;-70
2023/05/29 06:45:30;;;;;;;59.00;3.00;;;;;;;;;;5071771;28;20819;-70
2023/05/29 06:47:57;;;;;;;57.90;3.17;;;;;;;;;;5071381;28;20495;-70
2023/05/29 06:50:24;;;;;;;57.73;2.90;;;;;;;;;;5070640;28;20450;-70
2023/05/29 06:52:52;;;;;;;57.23;2.80;;;;;;;;;;5071202;28;21017;-70
2023/05/29 06:55:21;;;;;;;59.80;4.20;;;;;;;;;;5071610;28;20458;-70
2023/05/29 06:57:48;;;;;;;57.03;2.37;;;;;;;;;;5071587;28;20447;-70
2023/05/29 07:00:16;;;;;;;57.10;2.20;;;;;;;;;;5070786;28;20882;-70
2023/05/29 07:02:43;;;;;;;57.27;2.30;;;;;;;;;;5071200;28;20475;-70
2023/05/29 07:05:10;;;;;;;61.30;3.90;;;;;;;;;;5071535;28;20534;-70
2023/05/29 07:07:37;;;;;;;57.50;3.00;;;;;;;;;;5071051;28;20479;-70
2023/05/29 07:10:05;;;;;;;57.30;2.50;;;;;;;;;;5070743;28;20451;-70
2023/05/29 07:12:34;;;;;;;57.50;2.80;;;;;;;;;;5071103;28;20463;-70
2023/05/29 07:15:01;;;;;;;57.87;3.07;;;;;;;;;;5071399;28;20450;-70
2023/05/29 07:17:28;;;;;;;60.07;3.07;;;;;;;;;;5071107;28;20450;-70
2023/05/29 07:19:55;;;;;;;57.07;2.57;;;;;;;;;;5070429;28;20443;-70
2023/05/29 07:22:22;;;;;;;57.17;2.43;;;;;;;;;;5071255;28;20475;-70
2023/05/29 07:24:49;;;;;;;57.17;2.90;;;;;;;;;;5071031;28;20463;-70
2023/05/29 07:27:16;;;;;;;58.20;2.87;;;;;;;;;;5071018;28;20497;-70
2023/05/29 07:29:45;;;;;;;57.47;2.57;;;;;;;;;;5070199;28;20458;-70
2023/05/29 07:32:12;;;;;;;59.07;3.43;;;;;;;;;;5070924;28;20476;-70
2023/05/29 07:34:39;;;;;;;59.20;3.20;;;;;;;;;;5070786;28;20443;-70
2023/05/29 07:37:08;;;;;;;58.93;2.83;;;;;;;;;;5073047;28;20496;-70
2023/05/29 07:39:36;;;;;;;57.50;2.60;;;;;;;;;;5074325;28;20454;-70
2023/05/29 07:42:03;;;;;;;58.17;2.70;;;;;;;;;;5074874;28;20467;-70
2023/05/29 07:44:30;;;;;;;57.37;2.63;;;;;;;;;;5074996;28;20447;-70
2023/05/29 07:46:58;;;;;;;57.20;2.80;;;;;;;;;;5074900;28;20450;-70
2023/05/29 07:49:26;;;;;;;56.90;2.30;;;;;;;;;;5073990;28;21029;-70
2023/05/29 07:51:53;;;;;;;57.50;2.97;;;;;;;;;;5074923;28;20770;-70
2023/05/29 07:54:20;;;;;;;57.53;2.57;;;;;;;;;;5074884;28;20447;-70
2023/05/29 07:56:48;;;;;;;57.20;2.40;;;;;;;;;;5074621;28;20459;-70
2023/05/29 07:59:15;;;;;;;64.20;5.07;;;;;;;;;;5074208;28;20446;-70
2023/05/29 08:01:43;;;;;;;57.37;3.30;;;;;;;;;;5074368;28;20467;-70
2023/05/29 08:04:11;;;;;;;57.80;3.00;;;;;;;;;;5074805;28;20501;-70
2023/05/29 08:06:42;;;;;;;56.97;2.43;;;;;;;;;;5074705;28;20459;-70
2023/05/29 08:09:09;;;;;;;57.73;2.60;;;;;;;;;;5073769;28;20523;-70
2023/05/29 08:11:36;;;;;;;59.17;2.40;;;;;;;;;;5074408;28;20471;-70
2023/05/29 08:14:04;;;;;;;57.23;2.57;;;;;;;;;;5074472;28;20455;-70
2023/05/29 08:16:31;;;;;;;57.50;2.60;;;;;;;;;;5074624;28;20472;-70
2023/05/29 08:18:59;;;;;;;57.20;2.57;;;;;;;;;;5073442;28;20482;-70
2023/05/29 08:21:27;;;;;;;56.90;2.90;;;;;;;;;;5074229;28;20474;-70
2023/05/29 08:23:54;;;;;;;57.60;3.33;;;;;;;;;;5074252;28;20469;-70
2023/05/29 08:26:21;;;;;;;57.37;3.10;;;;;;;;;;5074116;28;20447;-70
2023/05/29 08:28:48;;;;;;;58.30;2.73;;;;;;;;;;5073002;28;20479;-70
2023/05/29 08:31:16;;;;;;;57.40;2.30;;;;;;;;;;5074192;28;20836;-70
2023/05/29 08:33:43;;;;;;;58.17;2.80;;;;;;;;;;5074316;28;20450;-70
2023/05/29 08:36:10;;;;;;;57.27;2.10;;;;;;;;;;5074260;28;20506;-70
2023/05/29 08:38:39;;;;;;;57.27;2.30;;;;;;;;;;5073101;28;20932;-70
2023/05/29 08:41:06;;;;;;;57.80;3.63;;;;;;;;;;5073990;28;20452;-70
2023/05/29 08:43:34;;;;;;;57.40;2.47;;;;;;;;;;5074015;28;20489;-70
2023/05/29 08:46:02;;;;;;;58.10;2.50;;;;;;;;;;5073975;28;20500;-70
2023/05/29 08:48:29;;;;;;;56.97;2.30;;;;;;;;;;5072892;28;20573;-70
2023/05/29 08:50:57;;;;;;;57.37;2.40;;;;;;;;;;5073457;28;20459;-70
2023/05/29 08:53:24;;;;;;;56.90;2.20;;;;;;;;;;5073918;28;20450;-70
2023/05/29 08:55:55;;;;;;;57.20;1.90;;;;;;;;;;5073668;28;20451;-70
2023/05/29 08:58:22;;;;;;;57.20;2.70;;;;;;;;;;5073644;28;20485;-70
2023/05/29 09:00:49;;;;;;;57.70;3.13;;;;;;;;;;5072758;28;20448;-70
2023/05/29 09:03:17;;;;;;;58.47;3.00;;;;;;;;;;5073612;28;20462;-70
2023/05/29 09:05:44;;;;;;;58.17;2.90;;;;;;;;;;5073676;28;20542;-70
2023/05/29 09:08:12;;;;;;;58.53;2.90;;;;;;;;;;5073432;28;20483;-70
2023/05/29 09:10:40;;;;;;;57.00;2.27;;;;;;;;;;5072837;28;20448;-70
2023/05/29 09:13:09;;;;;;;56.97;2.47;;;;;;;;;;5073086;28;20467;-70
2023/05/29 09:15:39;;;;;;;56.57;2.17;;;;;;;;;;5073333;28;20491;-70
2023/05/29 09:18:07;;;;;;;57.17;2.50;;;;;;;;;;5073438;28;20847;-70
2023/05/29 09:20:34;;;;;;;56.60;2.27;;;;;;;;;;5072701;28;20896;-70
2023/05/29 09:23:02;;;;;;;57.70;2.60;;;;;;;;;;5073120;28;20482;-70
2023/05/29 09:25:31;;;;;;;57.70;3.43;;;;;;;;;;5073391;28;20444;-68
2023/05/29 09:28:00;;;;;;;57.60;2.80;;;;;;;;;;5073058;28;20478;-70
2023/05/29 09:30:36;;;;;;;57.70;2.50;;;;;;;;;;5072616;28;20447;-70
2023/05/29 09:33:03;;;;;;;57.40;2.80;;;;;;;;;;5072886;28;21014;-70
2023/05/29 09:35:34;;;;;;;57.10;3.10;;;;;;;;;;5073307;28;20447;-70
2023/05/29 09:38:01;;;;;;;56.40;2.37;;;;;;;;;;5072978;28;20538;-70
2023/05/29 09:40:28;;;;;;;56.87;2.10;;;;;;;;;;5071982;28;20451;-70
2023/05/29 09:42:55;;;;;;;62.80;3.90;;;;;;;;;;5073061;28;20879;-70
2023/05/29 09:45:23;;;;;;;56.67;2.30;;;;;;;;;;5072678;28;20447;-70
2023/05/29 09:47:54;;;;;;;57.27;2.33;;;;;;;;;;5072403;28;20826;-70
2023/05/29 09:50:21;;;;;;;56.53;1.77;;;;;;;;;;5071765;28;21093;-70
2023/05/29 09:52:52;;;;;;;60.13;2.60;;;;;;;;;;5072619;28;20467;-70
2023/05/29 09:55:19;;;;;;;57.30;2.73;;;;;;;;;;5072470;28;20971;-70
2023/05/29 09:57:48;;;;;;;57.50;2.10;;;;;;;;;;5072635;28;20457;-71
2023/05/29 10:00:16;;;;;;;58.03;3.20;;;;;;;;;;5070951;28;20455;-70
2023/05/29 10:02:43;;;;;;;56.63;2.40;;;;;;;;;;5072048;28;20463;-70
2023/05/29 10:05:15;;;;;;;57.47;2.80;;;;;;;;;;5072402;28;20920;-70
2023/05/29 10:07:46;;;;;;;56.87;2.27;;;;;;;;;;5072350;28;20459;-70
2023/05/29 10:10:14;;;;;;;58.70;3.87;;;;;;;;;;5071420;28;20506;-70
2023/05/29 10:12:44;;;;;;;58.40;3.90;;;;;;;;;;5072236;28;20468;-70
2023/05/29 10:15:13;;;;;;;57.17;2.70;;;;;;;;;;5071971;28;20461;-71
2023/05/29 10:17:41;;;;;;;57.30;2.83;;;;;;;;;;5072177;28;20513;-71
2023/05/29 10:20:10;;;;;;;57.10;2.50;;;;;;;;;;5071110;28;20981;-71
2023/05/29 10:22:41;;;;;;;57.50;2.87;;;;;;;;;;5071851;28;20475;-71
2023/05/29 10:25:09;;;;;;;56.83;2.33;;;;;;;;;;5071758;28;20978;-71
2023/05/29 10:27:37;;;;;;;57.90;2.87;;;;;;;;;;5071604;28;20463;-71
2023/05/29 10:30:08;;;;;;;56.90;2.63;;;;;;;;;;5071282;28;20494;-71
2023/05/29 10:32:40;;;;;;;57.40;3.70;;;;;;;;;;5071657;28;20470;-71
2023/05/29 10:35:10;;;;;;;57.00;2.20;;;;;;;;;;5071987;28;20542;-71
2023/05/29 10:37:39;;;;;;;56.60;2.00;;;;;;;;;;5071595;28;20448;-71
2023/05/29 10:40:12;;;;;;;56.20;2.10;;;;;;;;;;5070666;28;20440;-71
2023/05/29 10:42:43;;;;;;;56.67;2.70;;;;;;;;;;5071457;28;21049;-69
2023/05/29 10:45:11;;;;;;;56.20;2.00;;;;;;;;;;5071507;28;20455;-69
2023/05/29 10:47:38;;;;;;;56.40;2.10;;;;;;;;;;5071722;28;20524;-70
2023/05/29 10:50:06;;;;;;;55.77;1.87;;;;;;;;;;5070585;28;20486;-70
2023/05/29 10:52:33;;;;;;;55.90;1.80;;;;;;;;;;5070890;28;20474;-70
2023/05/29 10:55:03;;;;;;;56.50;2.50;;;;;;;;;;5071609;28;20797;-70
2023/05/29 10:57:35;;;;;;;55.60;1.97;;;;;;;;;;5071744;28;20474;-70
2023/05/29 11:00:12;;;;;;;55.83;2.13;;;;;;;;;;5070668;28;20479;-70
2023/05/29 11:02:39;;;;;;;55.93;2.17;;;;;;;;;;5071213;28;20463;-70
2023/05/29 11:05:22;;;;;;;58.53;4.20;;;;;;;;;;5071025;28;20497;-71
2023/05/29 11:07:59;;;;;;;56.37;2.53;;;;;;;;;;5069154;28;20461;-71
2023/05/29 11:10:44;;;;;;;55.77;1.80;;;;;;;;;;5070173;28;20836;-70
2023/05/29 11:13:13;;;;;;;55.80;2.10;;;;;;;;;;5061274;28;20536;-70
2023/05/29 11:15:40;;;;;;;55.80;2.00;;;;;;;;;;5071281;28;20797;-70
2023/05/29 11:18:08;;;;;;;57.00;2.00;;;;;;;;;;5071045;28;20454;-71
2023/05/29 11:20:38;;;;;;;55.17;1.60;;;;;;;;;;5070405;28;20803;-71
2023/05/29 11:23:07;;;;;;;55.80;2.10;;;;;;;;;;5071196;28;20550;-70
2023/05/29 11:25:35;;;;;;;55.67;1.67;;;;;;;;;;5071263;28;20463;-71
2023/05/29 11:28:04;;;;;;;55.67;1.67;;;;;;;;;;5071125;28;20443;-70
2023/05/29 11:30:33;;;;;;;55.37;1.60;;;;;;;;;;5070245;28;20482;-70
2023/05/29 11:33:02;;;;;;;56.43;2.60;;;;;;;;;;5071048;28;20467;-70
2023/05/29 11:35:31;;;;;;;55.93;2.30;;;;;;;;;;5070856;28;20957;-71
2023/05/29 11:37:58;;;;;;;55.70;2.00;;;;;;;;;;5070902;28;21005;-70
2023/05/29 11:40:25;;;;;;;57.50;2.10;;;;;;;;;;5070309;28;20451;-71
2023/05/29 11:42:53;;;;;;;55.60;1.70;;;;;;;;;;5071053;28;20469;-71
2023/05/29 11:45:21;;;;;;;55.50;1.93;;;;;;;;;;5071138;28;20505;-71
2023/05/29 11:47:53;;;;;;;55.80;2.07;;;;;;;;;;5070811;28;20955;-71
2023/05/29 11:50:21;;;;;;;55.67;2.13;;;;;;;;;;5070121;28;20483;-71
2023/05/29 11:52:48;;;;;;;55.80;1.80;;;;;;;;;;5070674;28;20542;-71
2023/05/29 11:55:15;;;;;;;55.27;2.00;;;;;;;;;;5070954;28;20443;-71
2023/05/29 11:57:42;;;;;;;55.70;2.37;;;;;;;;;;5071038;28;20447;-71
2023/05/29 12:00:14;;;;;;;55.77;1.83;;;;;;;;;;5070025;28;20974;-71
2023/05/29 12:02:42;;;;;;;55.77;2.23;;;;;;;;;;5070748;28;20459;-71
2023/05/29 12:05:14;;;;;;;55.77;2.07;;;;;;;;;;5070881;28;20464;-71
2023/05/29 12:07:48;;;;;;;55.23;2.10;;;;;;;;;;5070920;28;20436;-71
2023/05/29 12:10:16;;;;;;;55.33;1.90;;;;;;;;;;5070019;28;20859;-71
2023/05/29 12:12:43;;;;;;;55.57;2.00;;;;;;;;;;5070860;28;20558;-71
2023/05/29 12:15:11;;;;;;;55.93;1.90;;;;;;;;;;5070696;28;20449;-71
2023/05/29 12:17:38;;;;;;;55.20;1.90;;;;;;;;;;5070563;28;20451;-71
2023/05/29 12:20:09;;;;;;;55.50;1.90;;;;;;;;;;5069672;28;20447;-71
2023/05/29 12:22:38;;;;;;;55.20;1.93;;;;;;;;;;5071954;28;20502;-71
2023/05/29 12:25:07;;;;;;;55.40;2.00;;;;;;;;;;5074087;28;20465;-71
2023/05/29 12:27:37;;;;;;;55.40;1.97;;;;;;;;;;5074358;28;20533;-71
2023/05/29 12:30:05;;;;;;;55.50;1.90;;;;;;;;;;5073345;28;20483;-71
2023/05/29 12:32:36;;;;;;;55.40;2.10;;;;;;;;;;5074127;28;20471;-71
2023/05/29 12:35:03;;;;;;;56.63;2.47;;;;;;;;;;5074288;28;20436;-71
2023/05/29 12:37:31;;;;;;;55.50;2.10;;;;;;;;;;5074072;28;20443;-71
2023/05/29 12:40:13;;;;;;;55.20;1.80;;;;;;;;;;5073367;28;20446;-71
2023/05/29 12:42:40;;;;;;;55.77;2.00;;;;;;;;;;5073749;28;20478;-71
2023/05/29 12:45:09;;;;;;;55.53;1.80;;;;;;;;;;5073597;28;20455;-71
2023/05/29 12:47:36;;;;;;;55.30;1.97;;;;;;;;;;5073947;28;20451;-71
2023/05/29 12:50:20;;;;;;;55.80;2.27;;;;;;;;;;5073141;28;20487;-71
2023/05/29 12:52:47;;;;;;;56.60;2.80;;;;;;;;;;5073652;28;20501;-71
2023/05/29 12:55:16;;;;;;;55.17;1.80;;;;;;;;;;5073607;28;20447;-71
2023/05/29 12:57:45;;;;;;;56.00;2.87;;;;;;;;;;5073840;28;20644;-71
2023/05/29 13:00:13;;;;;;;55.30;2.00;;;;;;;;;;5073055;28;20443;-71
2023/05/29 13:02:40;;;;;;;56.20;2.70;;;;;;;;;;5073402;28;20475;-71
2023/05/29 13:05:08;;;;;;;55.50;2.57;;;;;;;;;;5073685;28;20451;-71
2023/05/29 13:07:35;;;;;;;55.70;2.40;;;;;;;;;;5073638;28;20462;-71
2023/05/29 13:10:02;;;;;;;55.67;2.23;;;;;;;;;;5072655;28;20483;-71
2023/05/29 13:12:31;;;;;;;55.20;2.10;;;;;;;;;;5073212;28;20999;-71
2023/05/29 13:14:58;;;;;;;55.20;2.00;;;;;;;;;;5073490;28;20447;-71
2023/05/29 13:17:25;;;;;;;55.60;2.07;;;;;;;;;;5073506;28;20508;-71
2023/05/29 13:19:52;;;;;;;57.03;3.53;;;;;;;;;;5072675;28;20439;-71
2023/05/29 13:22:19;;;;;;;55.70;2.10;;;;;;;;;;5072971;28;20478;-71
2023/05/29 13:24:46;;;;;;;55.47;2.00;;;;;;;;;;5072959;28;20465;-71
2023/05/29 13:27:15;;;;;;;55.20;1.70;;;;;;;;;;5073264;28;20759;-71
2023/05/29 13:29:44;;;;;;;55.40;1.90;;;;;;;;;;5072375;28;20501;-71
2023/05/29 13:32:11;;;;;;;55.30;1.60;;;;;;;;;;5072845;28;20474;-71
2023/05/29 13:34:39;;;;;;;55.03;1.80;;;;;;;;;;5073292;28;20810;-71
2023/05/29 13:37:06;;;;;;;55.80;2.10;;;;;;;;;;5072668;28;20455;-71
2023/05/29 13:39:33;;;;;;;55.87;2.27;;;;;;;;;;5072338;28;20439;-71
2023/05/29 13:42:00;;;;;;;55.87;2.23;;;;;;;;;;5073172;28;20467;-71
2023/05/29 13:44:27;;;;;;;55.40;1.97;;;;;;;;;;5072951;28;20860;-71
2023/05/29 13:46:56;;;;;;;55.53;2.07;;;;;;;;;;5072660;28;20455;-71
2023/05/29 13:49:23;;;;;;;55.63;2.10;;;;;;;;;;5071681;28;20505;-71
2023/05/29 13:51:50;;;;;;;55.37;1.90;;;;;;;;;;5072845;28;20467;-70
2023/05/29 13:54:18;;;;;;;56.40;1.93;;;;;;;;;;5072851;28;20455;-70
2023/05/29 13:56:45;;;;;;;55.73;2.13;;;;;;;;;;5072793;28;20447;-71
2023/05/29 13:59:12;;;;;;;55.97;2.63;;;;;;;;;;5071627;28;20452;-70
2023/05/29 14:01:39;;;;;;;56.13;2.30;;;;;;;;;;5072670;28;20463;-70
2023/05/29 14:04:08;;;;;;;56.80;2.50;;;;;;;;;;5072258;28;20908;-70
2023/05/29 14:06:36;;;;;;;55.47;1.73;;;;;;;;;;5072484;28;20984;-70
2023/05/29 14:09:04;;;;;;;55.97;1.73;;;;;;;;;;5071406;28;20451;-71
2023/05/29 14:11:35;;;;;;;55.80;1.73;;;;;;;;;;5072325;28;20873;-71
2023/05/29 14:14:02;;;;;;;55.70;1.90;;;;;;;;;;5072329;28;20439;-71
2023/05/29 14:16:29;;;;;;;55.70;2.07;;;;;;;;;;5072002;28;20668;-71
2023/05/29 14:18:56;;;;;;;55.47;1.80;;;;;;;;;;5071474;28;20462;-70
2023/05/29 14:21:24;;;;;;;55.37;1.60;;;;;;;;;;5072080;28;20459;-71
2023/05/29 14:23:51;;;;;;;55.63;1.87;;;;;;;;;;5071923;28;20489;-71
2023/05/29 14:26:19;;;;;;;58.37;2.30;;;;;;;;;;5071907;28;20451;-71
2023/05/29 14:28:46;;;;;;;55.47;1.87;;;;;;;;;;5071336;28;20447;-70
2023/05/29 14:31:14;;;;;;;55.73;1.80;;;;;;;;;;5071521;28;20522;-71
2023/05/29 14:33:41;;;;;;;55.80;1.87;;;;;;;;;;5071937;28;20825;-71
2023/05/29 14:36:09;;;;;;;56.37;2.17;;;;;;;;;;5071906;28;20446;-70